createdAt,value
2019-03-05T00:01:31.151Z,97162.70
2019-03-05T00:04:00.387Z,97163.16
2019-03-05T00:06:29.700Z,97161.12
2019-03-05T00:08:58.973Z,97168.77
2019-03-05T00:11:28.485Z,97168.54
2019-03-05T00:13:57.705Z,97171.47
2019-03-05T00:16:26.978Z,97171.22
2019-03-05T00:18:56.268Z,97178.63
2019-03-05T00:21:25.551Z,97180.87
2019-03-05T00:24:13.870Z,97177.05
2019-03-05T00:26:43.151Z,97171.81
2019-03-05T00:29:29.706Z,97174.02
2019-03-05T00:31:59.650Z,97184.14
2019-03-05T00:35:09.638Z,97181.43
2019-03-05T00:37:52.031Z,97188.39
2019-03-05T00:40:48.384Z,97196.03
2019-03-05T00:43:51.238Z,97202.13
2019-03-05T00:47:13.622Z,97207.11
2019-03-05T00:50:29.642Z,97206.88
2019-03-05T00:53:06.882Z,97215.69
2019-03-05T00:56:07.282Z,97206.56
2019-03-05T00:58:43.625Z,97210.09
2019-03-05T01:01:17.505Z,97206.86
2019-03-05T01:04:16.222Z,97204.72
2019-03-05T01:06:45.458Z,97216.42
2019-03-05T01:09:22.270Z,97216.27
2019-03-05T01:11:51.638Z,97201.39
2019-03-05T01:14:21.690Z,97201.64
2019-03-05T01:16:51.231Z,97198.94
2019-03-05T01:19:20.549Z,97201.41
2019-03-05T01:21:49.827Z,97203.13
2019-03-05T01:24:19.316Z,97201.34
2019-03-05T01:26:48.701Z,97196.37
2019-03-05T01:29:17.964Z,97191.30
2019-03-05T01:32:04.846Z,97199.42
2019-03-05T01:34:47.425Z,97203.50
2019-03-05T01:37:16.669Z,97207.31
2019-03-05T01:40:02.795Z,97208.89
2019-03-05T01:42:32.040Z,97207.98
2019-03-05T01:45:01.385Z,97212.95
2019-03-05T01:47:30.662Z,97200.30
2019-03-05T01:49:59.915Z,97189.04
2019-03-05T01:52:29.209Z,97195.13
2019-03-05T01:54:58.476Z,97204.50
2019-03-05T01:57:27.709Z,97198.75
2019-03-05T01:59:56.970Z,97199.22
2019-03-05T02:02:27.242Z,97207.11
2019-03-05T02:04:56.564Z,97199.19
2019-03-05T02:07:25.902Z,97192.42
2019-03-05T02:09:55.263Z,97187.68
2019-03-05T02:12:24.540Z,97192.20
2019-03-05T02:14:53.783Z,97201.01
2019-03-05T02:17:23.041Z,97207.54
2019-03-05T02:19:52.310Z,97203.91
2019-03-05T02:22:40.776Z,97211.24
2019-03-05T02:25:22.646Z,97210.35
2019-03-05T02:28:24.633Z,97213.62
2019-03-05T02:31:02.300Z,97205.40
2019-03-05T02:33:53.024Z,97220.84
2019-03-05T02:37:12.996Z,97223.08
2019-03-05T02:40:07.275Z,97219.03
2019-03-05T02:42:46.505Z,97220.14
2019-03-05T02:45:53.324Z,97219.72
2019-03-05T02:49:20.262Z,97218.59
2019-03-05T02:52:23.987Z,97217.02
2019-03-05T02:55:33.424Z,97209.66
2019-03-05T02:58:00.971Z,97217.45
2019-03-05T03:00:49.148Z,97206.63
2019-03-05T03:03:25.416Z,97205.94
2019-03-05T03:06:05.437Z,97196.23
2019-03-05T03:08:34.826Z,97199.27
2019-03-05T03:11:04.186Z,97199.84
2019-03-05T03:13:33.445Z,97201.75
2019-03-05T03:16:02.724Z,97180.44
2019-03-05T03:18:32.000Z,97209.99
2019-03-05T03:21:01.307Z,97214.71
2019-03-05T03:23:31.187Z,97227.58
2019-03-05T03:26:00.446Z,97227.25
2019-03-05T03:28:29.706Z,97226.81
2019-03-05T03:30:58.944Z,97224.88
2019-03-05T03:33:28.219Z,97242.92
2019-03-05T03:35:57.446Z,97235.69
2019-03-05T03:38:26.708Z,97236.81
2019-03-05T03:40:55.970Z,97241.56
2019-03-05T03:43:25.230Z,97244.73
2019-03-05T03:45:54.505Z,97246.52
2019-03-05T03:48:23.738Z,97246.28
2019-03-05T03:50:52.995Z,97253.84
2019-03-05T03:53:22.240Z,97249.09
2019-03-05T03:55:51.511Z,97253.14
2019-03-05T03:58:20.749Z,97254.83
2019-03-05T04:00:50.015Z,97250.08
2019-03-05T04:03:19.249Z,97254.50
2019-03-05T04:05:48.617Z,97257.27
2019-03-05T04:08:18.158Z,97258.66
2019-03-05T04:10:47.428Z,97255.95
2019-03-05T04:13:16.682Z,97263.36
2019-03-05T04:15:45.983Z,97258.09
2019-03-05T04:18:15.254Z,97248.39
2019-03-05T04:20:50.461Z,97253.70
2019-03-05T04:23:19.688Z,97254.98
2019-03-05T04:25:48.960Z,97252.42
2019-03-05T04:28:18.194Z,97251.38
2019-03-05T04:30:47.456Z,97251.80
2019-03-05T04:33:16.692Z,97249.11
2019-03-05T04:35:45.947Z,97258.14
2019-03-05T04:38:15.191Z,97249.25
2019-03-05T04:40:44.454Z,97257.27
2019-03-05T04:43:13.696Z,97252.09
2019-03-05T04:46:07.857Z,97250.17
2019-03-05T04:48:37.101Z,97247.23
2019-03-05T04:51:10.273Z,97244.49
2019-03-05T04:53:39.516Z,97249.72
2019-03-05T04:56:08.795Z,97249.48
2019-03-05T04:58:38.057Z,97253.95
2019-03-05T05:01:07.317Z,97264.30
2019-03-05T05:03:36.545Z,97258.66
2019-03-05T05:06:05.811Z,97257.37
2019-03-05T05:08:35.065Z,97264.27
2019-03-05T05:11:04.329Z,97262.34
2019-03-05T05:13:33.577Z,97258.53
2019-03-05T05:16:02.989Z,97254.52
2019-03-05T05:18:32.227Z,97263.56
2019-03-05T05:21:01.493Z,97264.86
2019-03-05T05:23:30.748Z,97265.80
2019-03-05T05:26:00.034Z,97263.23
2019-03-05T05:28:29.274Z,97272.09
2019-03-05T05:30:58.534Z,97266.58
2019-03-05T05:33:27.784Z,97275.03
2019-03-05T05:35:57.042Z,97277.55
2019-03-05T05:38:26.291Z,97282.10
2019-03-05T05:40:55.560Z,97280.20
2019-03-05T05:43:27.118Z,97282.03
2019-03-05T05:45:56.471Z,97276.38
2019-03-05T05:48:25.934Z,97281.74
2019-03-05T05:50:55.176Z,97272.93
2019-03-05T05:53:24.567Z,97270.31
2019-03-05T05:55:53.973Z,97271.75
2019-03-05T05:58:23.608Z,97280.98
2019-03-05T06:00:55.211Z,97282.38
2019-03-05T06:03:24.683Z,97280.52
2019-03-05T06:05:54.363Z,97290.80
2019-03-05T06:08:24.200Z,97292.60
2019-03-05T06:10:53.984Z,97307.23
2019-03-05T06:13:23.685Z,97286.96
2019-03-05T06:15:53.299Z,97299.31
2019-03-05T06:18:23.207Z,97286.39
2019-03-05T06:20:53.109Z,97302.37
2019-03-05T06:23:22.747Z,97295.95
2019-03-05T06:25:52.275Z,97296.02
2019-03-05T06:28:21.732Z,97300.07
2019-03-05T06:30:51.480Z,97297.80
2019-03-05T06:33:21.245Z,97295.31
2019-03-05T06:35:51.072Z,97307.11
2019-03-05T06:38:20.943Z,97308.30
2019-03-05T06:40:50.196Z,97317.42
2019-03-05T06:43:20.230Z,97318.47
2019-03-05T06:45:49.499Z,97319.17
2019-03-05T06:48:19.674Z,97332.23
2019-03-05T06:50:48.941Z,97324.23
2019-03-05T06:53:18.193Z,97331.41
2019-03-05T06:55:47.551Z,97334.40
2019-03-05T06:58:16.811Z,97335.73
2019-03-05T07:00:46.088Z,97343.67
2019-03-05T07:03:15.755Z,97339.03
2019-03-05T07:06:20.613Z,97344.16
2019-03-05T07:09:15.446Z,97350.17
2019-03-05T07:12:20.972Z,97346.09
2019-03-05T07:15:35.381Z,97346.22
2019-03-05T07:18:09.590Z,97336.33
2019-03-05T07:21:27.370Z,97348.25
2019-03-05T07:24:34.721Z,97355.57
2019-03-05T07:27:03.994Z,97349.97
2019-03-05T07:29:35.547Z,97357.57
2019-03-05T07:32:05.083Z,97356.03
2019-03-05T07:34:35.119Z,97356.83
2019-03-05T07:37:06.044Z,97364.38
2019-03-05T07:39:35.317Z,97357.56
2019-03-05T07:42:04.684Z,97368.89
2019-03-05T07:44:33.926Z,97371.32
2019-03-05T07:47:03.195Z,97374.39
2019-03-05T07:49:43.191Z,97384.31
2019-03-05T07:52:03.592Z,97376.34
2019-03-05T07:54:32.849Z,97374.75
2019-03-05T07:57:02.180Z,97372.67
2019-03-05T07:59:31.424Z,97382.59
2019-03-05T08:02:00.695Z,97383.72
2019-03-05T08:04:29.943Z,97378.41
2019-03-05T08:06:59.206Z,97380.32
2019-03-05T08:09:38.758Z,97369.75
2019-03-05T08:12:50.090Z,97377.44
2019-03-05T08:16:40.026Z,97377.22
2019-03-05T08:19:09.295Z,97377.67
2019-03-05T08:21:38.540Z,97383.08
2019-03-05T08:24:07.879Z,97396.08
2019-03-05T08:26:37.121Z,97395.28
2019-03-05T08:29:06.405Z,97401.28
2019-03-05T08:31:35.657Z,97395.51
2019-03-05T08:34:04.918Z,97398.11
2019-03-05T08:36:34.157Z,97402.77
2019-03-05T08:39:05.224Z,97395.75
2019-03-05T08:41:34.489Z,97385.51
2019-03-05T08:44:03.768Z,97387.66
2019-03-05T08:46:33.001Z,97394.60
2019-03-05T08:49:02.270Z,97390.50
2019-03-05T08:51:37.366Z,97372.02
2019-03-05T08:54:07.852Z,97381.97
2019-03-05T08:56:37.146Z,97390.55
2019-03-05T08:59:06.537Z,97390.34
2019-03-05T09:01:35.767Z,97382.44
2019-03-05T09:04:05.058Z,97402.66
2019-03-05T09:06:34.307Z,97396.91
2019-03-05T09:09:04.453Z,97394.41
2019-03-05T09:11:33.813Z,97389.20
2019-03-05T09:14:03.098Z,97390.23
2019-03-05T09:16:32.349Z,97396.10
2019-03-05T09:19:01.624Z,97390.34
2019-03-05T09:21:30.894Z,97398.46
2019-03-05T09:24:00.141Z,97391.91
2019-03-05T09:26:36.983Z,97401.41
2019-03-05T09:29:06.264Z,97401.86
2019-03-05T09:31:35.511Z,97382.84
2019-03-05T09:34:04.891Z,97387.59
2019-03-05T09:36:34.122Z,97380.80
2019-03-05T09:39:04.398Z,97385.55
2019-03-05T09:41:33.647Z,97387.55
2019-03-05T09:44:02.923Z,97378.00
2019-03-05T09:46:32.174Z,97374.59
2019-03-05T09:49:01.460Z,97385.47
2019-03-05T09:51:30.735Z,97382.73
2019-03-05T09:53:59.989Z,97371.22
2019-03-05T09:56:30.010Z,97377.34
2019-03-05T09:58:59.285Z,97371.29
2019-03-05T10:01:28.556Z,97382.73
2019-03-05T10:03:57.854Z,97377.02
2019-03-05T10:06:27.093Z,97392.30
2019-03-05T10:08:56.361Z,97370.89
2019-03-05T10:11:26.105Z,97384.34
2019-03-05T10:13:55.421Z,97398.66
2019-03-05T10:16:24.662Z,97395.22
2019-03-05T10:18:53.932Z,97403.31
2019-03-05T10:21:23.169Z,97400.20
2019-03-05T10:23:52.522Z,97389.23
2019-03-05T10:26:22.591Z,97396.69
2019-03-05T10:28:51.864Z,97412.55
2019-03-05T10:31:21.110Z,97405.76
2019-03-05T10:33:50.554Z,97398.09
2019-03-05T10:36:19.814Z,97396.36
2019-03-05T10:38:56.841Z,97392.44
2019-03-05T10:41:20.178Z,97407.73
2019-03-05T10:43:49.427Z,97390.73
2019-03-05T10:46:18.783Z,97393.16
2019-03-05T10:48:48.106Z,97392.17
2019-03-05T10:51:17.404Z,97385.95
2019-03-05T10:53:48.666Z,97404.36
2019-03-05T10:56:18.063Z,97396.20
2019-03-05T10:58:47.385Z,97393.22
2019-03-05T11:01:17.197Z,97372.67
2019-03-05T11:03:46.483Z,97365.13
2019-03-05T11:06:15.752Z,97376.88
2019-03-05T11:08:44.995Z,97372.05
2019-03-05T11:11:14.367Z,97363.73
2019-03-05T11:13:44.126Z,97362.14
2019-03-05T11:16:13.521Z,97362.89
2019-03-05T11:18:42.769Z,97358.78
2019-03-05T11:21:12.154Z,97337.23
2019-03-05T11:23:41.490Z,97348.38
2019-03-05T11:26:10.762Z,97349.78
2019-03-05T11:28:40.042Z,97348.59
2019-03-05T11:31:10.118Z,97347.28
2019-03-05T11:33:39.431Z,97345.56
2019-03-05T11:36:08.741Z,97350.40
2019-03-05T11:38:38.001Z,97332.67
2019-03-05T11:41:07.367Z,97334.95
2019-03-05T11:43:36.727Z,97342.16
2019-03-05T11:46:10.805Z,97334.40
2019-03-05T11:48:40.048Z,97318.95
2019-03-05T11:51:09.352Z,97326.67
2019-03-05T11:53:38.599Z,97333.21
2019-03-05T11:56:07.965Z,97329.44
2019-03-05T11:58:37.218Z,97324.88
2019-03-05T12:01:13.413Z,97331.89
2019-03-05T12:03:42.659Z,97331.21
2019-03-05T12:06:11.969Z,97343.08
2019-03-05T12:08:41.248Z,97326.89
2019-03-05T12:11:10.560Z,97326.17
2019-03-05T12:13:39.816Z,97312.42
2019-03-05T12:16:21.254Z,97325.87
2019-03-05T12:18:49.285Z,97323.59
2019-03-05T12:21:18.571Z,97327.45
2019-03-05T12:23:48.392Z,97330.14
2019-03-05T12:26:17.685Z,97330.54
2019-03-05T12:28:46.930Z,97335.27
2019-03-05T12:31:16.195Z,97338.44
2019-03-05T12:33:45.441Z,97330.22
2019-03-05T12:36:14.709Z,97337.67
2019-03-05T12:38:46.188Z,97345.84
2019-03-05T12:41:14.966Z,97346.02
2019-03-05T12:43:44.247Z,97354.00
2019-03-05T12:46:13.565Z,97338.41
2019-03-05T12:48:42.842Z,97350.52
2019-03-05T12:51:12.119Z,97340.48
2019-03-05T12:53:41.482Z,97361.48
2019-03-05T12:56:10.821Z,97364.42
2019-03-05T12:58:40.159Z,97361.59
2019-03-05T13:01:09.790Z,97342.18
2019-03-05T13:03:39.099Z,97353.38
2019-03-05T13:06:08.335Z,97352.59
2019-03-05T13:08:37.632Z,97361.11
2019-03-05T13:11:09.331Z,97347.85
2019-03-05T13:13:38.084Z,97348.87
2019-03-05T13:16:07.381Z,97347.51
2019-03-05T13:18:36.667Z,97347.08
2019-03-05T13:21:07.694Z,97345.26
2019-03-05T13:23:36.945Z,97347.55
2019-03-05T13:26:07.553Z,97369.50
2019-03-05T13:28:40.664Z,97370.43
2019-03-05T13:31:08.262Z,97368.14
2019-03-05T13:33:40.729Z,97371.42
2019-03-05T13:36:12.147Z,97365.23
2019-03-05T13:38:41.811Z,97384.25
2019-03-05T13:41:12.145Z,97396.88
2019-03-05T13:43:42.366Z,97380.84
2019-03-05T13:46:11.602Z,97386.72
2019-03-05T13:49:00.890Z,97383.08
2019-03-05T13:52:21.781Z,97385.80
2019-03-05T13:55:27.939Z,97384.01
2019-03-05T13:58:32.578Z,97379.72
2019-03-05T14:01:01.823Z,97381.53
2019-03-05T14:03:42.016Z,97384.70
2019-03-05T14:07:01.530Z,97389.08
2019-03-05T14:09:29.080Z,97385.72
2019-03-05T14:11:58.363Z,97393.48
2019-03-05T14:14:29.354Z,97398.01
2019-03-05T14:17:12.419Z,97400.61
2019-03-05T14:19:41.673Z,97405.71
2019-03-05T14:22:10.959Z,97408.19
2019-03-05T14:24:40.225Z,97406.72
2019-03-05T14:27:09.473Z,97407.95
2019-03-05T14:29:38.739Z,97404.53
2019-03-05T14:32:08.711Z,97421.83
2019-03-05T14:34:37.999Z,97428.03
2019-03-05T14:37:07.236Z,97421.96
2019-03-05T14:39:36.925Z,97431.64
2019-03-05T14:42:08.152Z,97434.09
2019-03-05T14:44:40.135Z,97432.31
2019-03-05T14:47:09.686Z,97440.62
2019-03-05T14:49:38.965Z,97438.47
2019-03-05T14:52:08.207Z,97444.91
2019-03-05T14:54:37.556Z,97440.36
2019-03-05T14:57:06.932Z,97450.93
2019-03-05T14:59:36.156Z,97452.75
2019-03-05T15:02:19.936Z,97456.30
2019-03-05T15:04:49.236Z,97462.06
2019-03-05T15:07:18.504Z,97460.52
2019-03-05T15:09:47.976Z,97460.77
2019-03-05T15:12:17.447Z,97459.84
2019-03-05T15:14:46.715Z,97463.25
2019-03-05T15:17:16.037Z,97467.94
2019-03-05T15:19:45.271Z,97471.76
2019-03-05T15:22:14.695Z,97470.43
2019-03-05T15:24:43.986Z,97485.45
2019-03-05T15:27:13.268Z,97468.91
2019-03-05T15:29:42.512Z,97470.17
2019-03-05T15:32:12.029Z,97471.30
2019-03-05T15:34:41.241Z,97481.71
2019-03-05T15:37:10.543Z,97472.41
2019-03-05T15:39:39.824Z,97473.59
2019-03-05T15:42:09.070Z,97485.08
2019-03-05T15:44:38.339Z,97484.50
2019-03-05T15:47:07.638Z,97479.98
2019-03-05T15:49:36.926Z,97479.59
2019-03-05T15:52:06.318Z,97482.88
2019-03-05T15:54:35.534Z,97489.34
2019-03-05T15:57:04.824Z,97487.50
2019-03-05T15:59:34.181Z,97488.09
2019-03-05T16:02:03.446Z,97485.39
2019-03-05T16:04:35.996Z,97489.55
2019-03-05T16:07:06.776Z,97482.58
2019-03-05T16:09:39.328Z,97492.72
2019-03-05T16:12:09.471Z,97489.55
2019-03-05T16:14:38.482Z,97496.78
2019-03-05T16:17:07.766Z,97501.97
2019-03-05T16:19:37.022Z,97505.70
2019-03-05T16:22:06.406Z,97501.11
2019-03-05T16:24:37.548Z,97511.52
2019-03-05T16:27:07.309Z,97511.13
2019-03-05T16:29:36.655Z,97511.36
2019-03-05T16:32:26.887Z,97514.44
2019-03-05T16:35:19.475Z,97517.80
2019-03-05T16:38:07.045Z,97516.58
2019-03-05T16:40:48.294Z,97521.57
2019-03-05T16:43:26.658Z,97532.02
2019-03-05T16:46:11.576Z,97534.43
2019-03-05T16:48:50.980Z,97541.17
2019-03-05T16:51:45.915Z,97557.30
2019-03-05T16:54:29.176Z,97562.06
2019-03-05T16:57:21.138Z,97571.16
2019-03-05T17:00:10.728Z,97566.53
2019-03-05T17:03:02.030Z,97571.02
2019-03-05T17:05:48.937Z,97580.94
2019-03-05T17:08:43.088Z,97584.37
2019-03-05T17:11:49.549Z,97587.29
2019-03-05T17:14:18.819Z,97591.86
2019-03-05T17:16:48.092Z,97595.19
2019-03-05T17:19:17.339Z,97599.98
2019-03-05T17:21:46.678Z,97612.81
2019-03-05T17:24:17.524Z,97618.03
2019-03-05T17:26:46.798Z,97622.23
2019-03-05T17:29:16.286Z,97631.36
2019-03-05T17:31:45.756Z,97625.28
2019-03-05T17:34:15.055Z,97636.35
2019-03-05T17:36:44.361Z,97636.78
2019-03-05T17:39:25.183Z,97650.05
2019-03-05T17:41:54.438Z,97649.58
2019-03-05T17:44:23.717Z,97662.53
2019-03-05T17:46:52.985Z,97655.58
2019-03-05T17:49:22.306Z,97660.34
2019-03-05T17:51:51.627Z,97670.94
2019-03-05T17:54:20.902Z,97673.38
2019-03-05T17:56:50.179Z,97677.27
2019-03-05T17:59:19.500Z,97678.85
2019-03-05T18:01:48.819Z,97672.53
2019-03-05T18:04:18.428Z,97678.62
2019-03-05T18:06:47.715Z,97680.38
2019-03-05T18:09:17.780Z,97681.04
2019-03-05T18:11:47.377Z,97687.95
2019-03-05T18:14:16.621Z,97691.63
2019-03-05T18:16:45.922Z,97695.25
2019-03-05T18:19:15.656Z,97703.84
2019-03-05T18:21:44.940Z,97705.91
2019-03-05T18:24:14.356Z,97709.34
2019-03-05T18:26:45.710Z,97704.83
2019-03-05T18:29:15.081Z,97713.84
2019-03-05T18:31:44.608Z,97711.61
2019-03-05T18:34:14.231Z,97710.02
2019-03-05T18:36:44.237Z,97718.80
2019-03-05T18:39:14.455Z,97714.92
2019-03-05T18:41:44.101Z,97715.11
2019-03-05T18:44:14.342Z,97722.87
2019-03-05T18:46:44.168Z,97724.05
2019-03-05T18:49:13.643Z,97724.29
2019-03-05T18:51:43.693Z,97724.23
2019-03-05T18:54:14.353Z,97729.66
2019-03-05T18:56:44.615Z,97724.23
2019-03-05T18:59:13.846Z,97725.41
2019-03-05T19:01:43.383Z,97726.95
2019-03-05T19:04:13.460Z,97733.04
2019-03-05T19:06:43.075Z,97733.57
2019-03-05T19:09:19.203Z,97730.39
2019-03-05T19:11:48.536Z,97738.75
2019-03-05T19:14:20.850Z,97750.00
2019-03-05T19:16:50.181Z,97755.76
2019-03-05T19:19:19.693Z,97764.96
2019-03-05T19:21:49.399Z,97762.53
2019-03-05T19:24:18.639Z,97772.36
2019-03-05T19:26:47.953Z,97780.80
2019-03-05T19:29:17.744Z,97775.80
2019-03-05T19:31:47.252Z,97772.73
2019-03-05T19:34:16.732Z,97771.47
2019-03-05T19:36:45.949Z,97772.73
2019-03-05T19:39:15.836Z,97779.07
2019-03-05T19:41:45.156Z,97777.88
2019-03-05T19:44:19.150Z,97781.33
2019-03-05T19:46:48.577Z,97781.94
2019-03-05T19:49:17.868Z,97781.58
2019-03-05T19:51:56.947Z,97783.37
2019-03-05T19:54:26.251Z,97789.89
2019-03-05T19:56:55.731Z,97790.64
2019-03-05T19:59:25.187Z,97798.09
2019-03-05T20:01:54.574Z,97785.63
2019-03-05T20:04:24.117Z,97796.44
2019-03-05T20:06:53.861Z,97809.81
2019-03-05T20:09:24.011Z,97814.67
2019-03-05T20:11:53.447Z,97818.48
2019-03-05T20:14:23.137Z,97810.61
2019-03-05T20:16:52.406Z,97809.59
2019-03-05T20:19:21.529Z,97821.91
2019-03-05T20:21:50.767Z,97815.55
2019-03-05T20:24:20.065Z,97824.86
2019-03-05T20:26:49.577Z,97828.81
2019-03-05T20:29:18.937Z,97825.14
2019-03-05T20:31:48.370Z,97831.52
2019-03-05T20:34:17.634Z,97833.75
2019-03-05T20:36:47.026Z,97832.16
2019-03-05T20:39:16.526Z,97830.74
2019-03-05T20:41:45.807Z,97838.52
2019-03-05T20:44:15.096Z,97837.09
2019-03-05T20:46:44.387Z,97843.47
2019-03-05T20:49:13.665Z,97853.80
2019-03-05T20:51:43.203Z,97849.36
2019-03-05T20:54:12.494Z,97854.84
2019-03-05T20:56:41.788Z,97855.57
2019-03-05T20:59:11.095Z,97855.63
2019-03-05T21:01:40.420Z,97852.36
2019-03-05T21:04:09.793Z,97862.69
2019-03-05T21:06:39.094Z,97860.30
2019-03-05T21:09:23.072Z,97861.50
2019-03-05T21:11:52.572Z,97862.20
2019-03-05T21:14:21.911Z,97866.50
2019-03-05T21:16:51.363Z,97863.69
2019-03-05T21:19:20.743Z,97860.21
2019-03-05T21:21:50.083Z,97857.06
2019-03-05T21:24:19.379Z,97859.28
2019-03-05T21:26:48.655Z,97862.77
2019-03-05T21:29:18.162Z,97860.94
2019-03-05T21:31:49.834Z,97865.38
2019-03-05T21:34:18.765Z,97862.59
2019-03-05T21:36:48.140Z,97866.58
2019-03-05T21:39:18.501Z,97865.91
2019-03-05T21:41:47.810Z,97867.52
2019-03-05T21:44:17.060Z,97871.56
2019-03-05T21:46:46.314Z,97873.35
2019-03-05T21:49:16.470Z,97871.93
2019-03-05T21:51:45.857Z,97877.58
2019-03-05T21:54:15.461Z,97877.09
2019-03-05T21:56:44.728Z,97874.51
2019-03-05T21:59:13.987Z,97880.72
2019-03-05T22:01:43.274Z,97875.13
2019-03-05T22:04:12.517Z,97878.75
2019-03-05T22:06:41.803Z,97881.43
2019-03-05T22:09:11.061Z,97888.59
2019-03-05T22:11:40.334Z,97889.23
2019-03-05T22:14:09.623Z,97886.05
2019-03-05T22:16:38.878Z,97887.73
2019-03-05T22:19:08.150Z,97887.84
2019-03-05T22:21:37.394Z,97886.00
2019-03-05T22:24:07.246Z,97892.39
2019-03-05T22:26:36.491Z,97890.91
2019-03-05T22:29:06.078Z,97889.37
2019-03-05T22:31:35.504Z,97892.20
2019-03-05T22:34:04.820Z,97891.31
2019-03-05T22:36:34.159Z,97893.92
2019-03-05T22:39:04.789Z,97888.88
2019-03-05T22:41:34.048Z,97894.61
2019-03-05T22:44:03.293Z,97902.47
2019-03-05T22:46:32.893Z,97905.35
2019-03-05T22:49:02.187Z,97902.28
2019-03-05T22:51:31.529Z,97901.48
2019-03-05T22:54:00.780Z,97906.64
2019-03-05T22:56:30.394Z,97903.30
2019-03-05T22:58:59.658Z,97907.26
2019-03-05T23:01:38.146Z,97908.67
2019-03-05T23:04:08.184Z,97904.41
2019-03-05T23:06:37.744Z,97916.31
2019-03-05T23:09:14.069Z,97919.38
2019-03-05T23:11:43.515Z,97920.45
2019-03-05T23:14:12.840Z,97925.15
2019-03-05T23:16:56.336Z,97922.11
2019-03-05T23:19:25.701Z,97925.06
2019-03-05T23:21:54.952Z,97926.90
2019-03-05T23:24:24.342Z,97928.80
2019-03-05T23:26:53.583Z,97934.69
2019-03-05T23:29:31.415Z,97932.84
2019-03-05T23:32:00.657Z,97928.89
2019-03-05T23:34:29.955Z,97933.66
2019-03-05T23:36:59.533Z,97941.58
2019-03-05T23:39:28.791Z,97937.35
2019-03-05T23:41:58.236Z,97928.27
2019-03-05T23:44:27.508Z,97931.33
2019-03-05T23:46:56.812Z,97931.70
2019-03-05T23:49:26.084Z,97930.36
2019-03-05T23:51:55.388Z,97931.69
2019-03-05T23:54:24.870Z,97930.36
2019-03-05T23:56:54.105Z,97931.27
2019-03-05T23:59:23.359Z,97934.26
